createdAt,value
2017-11-28T00:02:03.041Z,76.4
2017-11-28T00:07:03.741Z,76.4
2017-11-28T00:12:03.172Z,76.6
2017-11-28T00:17:03.480Z,76.5
2017-11-28T00:22:03.177Z,76.5
2017-11-28T00:27:03.470Z,76.4
2017-11-28T00:32:03.495Z,76.3
2017-11-28T00:37:03.660Z,76.3
2017-11-28T00:42:03.846Z,76.3
2017-11-28T00:47:03.979Z,76.3
2017-11-28T00:52:03.703Z,76.4
2017-11-28T00:57:03.759Z,76.3
2017-11-28T01:02:03.053Z,76.3
2017-11-28T01:07:03.271Z,76.2
2017-11-28T01:12:03.485Z,76.2
2017-11-28T01:17:03.744Z,76.2
2017-11-28T01:22:03.929Z,76.5
2017-11-28T01:27:03.938Z,76.5
2017-11-28T01:32:03.350Z,76.5
2017-11-28T01:37:03.323Z,76.4
2017-11-28T01:42:03.494Z,76.5
2017-11-28T01:47:03.609Z,76.6
2017-11-28T01:52:03.066Z,77.0
2017-11-28T01:57:03.361Z,76.8
2017-11-28T02:02:03.588Z,76.9
2017-11-28T02:07:03.218Z,76.9
2017-11-28T02:12:03.462Z,76.7
2017-11-28T02:17:03.566Z,76.8
2017-11-28T02:22:03.161Z,76.8
2017-11-28T02:27:03.409Z,76.8
2017-11-28T02:32:03.578Z,77.0
2017-11-28T02:37:03.532Z,76.9
2017-11-28T02:42:03.546Z,76.9
2017-11-28T02:47:03.783Z,76.9
2017-11-28T02:52:03.897Z,77.0
2017-11-28T02:57:03.994Z,77.0
2017-11-28T03:02:03.372Z,77.2
2017-11-28T03:07:03.674Z,77.2
2017-11-28T03:12:03.857Z,77.2
2017-11-28T03:17:03.260Z,77.2
2017-11-28T03:22:03.498Z,77.2
2017-11-28T03:27:03.590Z,77.2
2017-11-28T03:32:03.917Z,77.2
2017-11-28T03:37:03.280Z,77.2
2017-11-28T03:42:03.518Z,77.2
2017-11-28T03:47:03.835Z,77.3
2017-11-28T03:52:03.193Z,77.2
2017-11-28T03:57:03.459Z,77.2
2017-11-28T04:02:04.096Z,77.2
2017-11-28T04:07:03.353Z,77.2
2017-11-28T04:12:03.702Z,77.3
2017-11-28T04:17:04.047Z,77.3
2017-11-28T04:22:03.449Z,77.3
2017-11-28T04:27:03.743Z,77.2
2017-11-28T04:32:04.043Z,77.2
2017-11-28T04:37:03.303Z,77.8
2017-11-28T04:42:03.598Z,78.0
2017-11-28T04:47:03.926Z,78.0
2017-11-28T04:52:03.279Z,77.7
2017-11-28T04:57:03.547Z,77.6
2017-11-28T05:02:03.850Z,77.5
2017-11-28T05:07:03.415Z,77.1
2017-11-28T05:12:03.800Z,77.3
2017-11-28T05:17:04.055Z,77.2
2017-11-28T05:22:03.416Z,77.1
2017-11-28T05:27:03.686Z,77.2
2017-11-28T05:32:04.002Z,77.2
2017-11-28T05:37:03.401Z,77.2
2017-11-28T05:42:03.620Z,77.3
2017-11-28T05:47:03.823Z,77.2
2017-11-28T05:52:03.148Z,77.1
2017-11-28T05:57:03.396Z,77.2
2017-11-28T06:02:03.712Z,77.3
2017-11-28T06:07:03.220Z,77.3
2017-11-28T06:12:03.584Z,77.2
2017-11-28T06:17:06.184Z,77.1
2017-11-28T06:22:03.369Z,77.2
2017-11-28T06:27:03.684Z,77.2
2017-11-28T06:32:20.576Z,77.1
2017-11-28T06:37:03.593Z,77.2
2017-11-28T06:42:03.052Z,77.1
2017-11-28T06:47:28.434Z,77.1
2017-11-28T06:52:03.692Z,77.3
2017-11-28T06:57:03.477Z,77.3
2017-11-28T07:02:27.966Z,77.5
2017-11-28T07:07:03.697Z,77.3
2017-11-28T07:12:03.438Z,77.2
2017-11-28T07:17:28.886Z,77.2
2017-11-28T07:22:03.509Z,77.3
2017-11-28T07:27:03.865Z,77.3
2017-11-28T07:32:28.373Z,77.2
2017-11-28T07:37:03.757Z,77.2
2017-11-28T07:42:03.189Z,77.2
2017-11-28T07:47:22.752Z,77.2
2017-11-28T07:52:02.985Z,77.1
2017-11-28T07:57:03.457Z,77.0
2017-11-28T08:02:22.512Z,77.6
2017-11-28T08:07:03.204Z,77.0
2017-11-28T08:12:03.293Z,77.0
2017-11-28T08:17:22.465Z,76.7
2017-11-28T08:22:03.298Z,76.9
2017-11-28T08:27:03.737Z,77.1
2017-11-28T08:32:29.273Z,77.1
2017-11-28T08:37:03.921Z,77.1
2017-11-28T08:42:03.423Z,77.0
2017-11-28T08:47:22.454Z,76.9
2017-11-28T08:52:03.218Z,76.5
2017-11-28T08:57:03.606Z,76.4
2017-11-28T09:02:24.402Z,76.5
2017-11-28T09:07:03.628Z,76.2
2017-11-28T09:12:03.134Z,76.1
2017-11-28T09:17:24.407Z,76.1
2017-11-28T09:22:03.089Z,76.2
2017-11-28T09:27:03.566Z,76.4
2017-11-28T09:32:24.799Z,76.4
2017-11-28T09:37:03.281Z,76.4
2017-11-28T09:42:03.771Z,76.4
2017-11-28T09:47:21.398Z,76.4
2017-11-28T09:52:03.572Z,76.4
2017-11-28T09:57:03.998Z,76.4
2017-11-28T10:02:24.764Z,76.4
2017-11-28T10:07:03.785Z,76.3
2017-11-28T10:12:03.430Z,76.5
2017-11-28T10:17:22.547Z,76.5
2017-11-28T10:22:03.350Z,76.5
2017-11-28T10:27:03.160Z,76.5
2017-11-28T10:32:23.996Z,76.2
2017-11-28T10:37:03.899Z,76.4
2017-11-28T10:42:03.338Z,76.1
2017-11-28T10:47:27.167Z,76.0
2017-11-28T10:52:03.151Z,75.6
2017-11-28T10:57:03.568Z,75.6
2017-11-28T11:02:25.175Z,75.2
